createdAt,value
2019-04-29T00:00:46.682Z,67.14
2019-04-29T00:03:16.180Z,67.42
2019-04-29T00:05:45.676Z,67.35
2019-04-29T00:08:15.269Z,67.47
2019-04-29T00:10:46.064Z,67.66
2019-04-29T00:13:15.829Z,67.78
2019-04-29T00:16:13.872Z,67.73
2019-04-29T00:19:02.874Z,67.99
2019-04-29T00:21:32.314Z,68.27
2019-04-29T00:24:04.120Z,68.13
2019-04-29T00:26:33.129Z,68.22
2019-04-29T00:29:02.602Z,68.75
2019-04-29T00:31:32.100Z,68.66
2019-04-29T00:34:01.608Z,68.61
2019-04-29T00:36:38.678Z,68.49
2019-04-29T00:39:36.130Z,68.30
2019-04-29T00:42:33.961Z,68.07
2019-04-29T00:45:03.542Z,68.65
2019-04-29T00:47:33.007Z,68.82
2019-04-29T00:50:02.476Z,68.59
2019-04-29T00:52:31.975Z,68.63
2019-04-29T00:55:07.417Z,69.09
2019-04-29T00:57:36.891Z,69.36
2019-04-29T01:00:07.917Z,69.58
2019-04-29T01:02:37.395Z,69.63
2019-04-29T01:05:06.980Z,69.96
2019-04-29T01:07:36.484Z,70.25
2019-04-29T01:10:06.961Z,70.30
2019-04-29T01:12:37.402Z,70.34
2019-04-29T01:15:07.216Z,70.35
2019-04-29T01:17:36.692Z,70.49
2019-04-29T01:20:06.526Z,70.74
2019-04-29T01:22:36.019Z,70.79
2019-04-29T01:25:05.490Z,70.73
2019-04-29T01:27:40.942Z,71.10
2019-04-29T01:30:11.962Z,71.27
2019-04-29T01:32:41.490Z,71.41
2019-04-29T01:35:10.955Z,71.66
2019-04-29T01:37:42.432Z,71.62
2019-04-29T01:40:33.661Z,71.47
2019-04-29T01:43:03.128Z,71.63
2019-04-29T01:45:32.672Z,71.50
2019-04-29T01:48:02.140Z,71.06
2019-04-29T01:50:31.649Z,71.30
2019-04-29T01:53:01.117Z,71.56
2019-04-29T01:55:30.605Z,71.94
2019-04-29T01:58:00.078Z,72.20
2019-04-29T02:00:29.554Z,72.39
2019-04-29T02:02:59.040Z,72.30
2019-04-29T02:05:28.515Z,70.91
2019-04-29T02:07:58.014Z,69.46
2019-04-29T02:10:33.201Z,68.93
2019-04-29T02:13:02.683Z,67.69
2019-04-29T02:15:32.156Z,67.85
2019-04-29T02:18:01.645Z,68.22
2019-04-29T02:20:31.134Z,68.41
2019-04-29T02:23:21.255Z,68.35
2019-04-29T02:25:50.740Z,69.07
2019-04-29T02:28:20.202Z,68.75
2019-04-29T02:30:52.001Z,68.84
2019-04-29T02:33:21.475Z,69.12
2019-04-29T02:35:50.945Z,69.26
2019-04-29T02:38:36.356Z,69.03
2019-04-29T02:41:31.104Z,69.38
2019-04-29T02:44:02.189Z,69.45
2019-04-29T02:46:31.664Z,69.75
2019-04-29T02:49:01.138Z,70.01
2019-04-29T02:51:45.880Z,69.91
2019-04-29T02:54:15.386Z,69.69
2019-04-29T02:56:47.616Z,69.86
2019-04-29T02:59:19.248Z,69.76
2019-04-29T03:01:59.948Z,69.98
2019-04-29T03:04:32.044Z,69.78
2019-04-29T03:07:01.670Z,69.80
2019-04-29T03:09:32.823Z,70.36
2019-04-29T03:12:02.483Z,70.47
2019-04-29T03:14:32.072Z,70.43
2019-04-29T03:17:01.634Z,70.46
2019-04-29T03:19:35.107Z,70.40
2019-04-29T03:22:05.955Z,70.64
2019-04-29T03:24:35.409Z,70.54
2019-04-29T03:27:04.929Z,70.63
2019-04-29T03:29:34.411Z,70.86
2019-04-29T03:32:03.920Z,70.90
2019-04-29T03:34:33.381Z,70.81
2019-04-29T03:37:02.832Z,71.04
2019-04-29T03:39:32.317Z,71.21
2019-04-29T03:42:01.826Z,70.80
2019-04-29T03:44:31.342Z,70.98
2019-04-29T03:47:00.813Z,71.07
2019-04-29T03:49:30.349Z,71.14
2019-04-29T03:51:59.802Z,71.47
2019-04-29T03:54:29.290Z,71.56
2019-04-29T03:56:58.761Z,71.35
2019-04-29T03:59:28.250Z,71.82
2019-04-29T04:02:06.830Z,72.00
2019-04-29T04:04:54.090Z,71.82
2019-04-29T04:07:34.109Z,72.01
2019-04-29T04:10:03.578Z,71.84
2019-04-29T04:12:33.085Z,71.63
2019-04-29T04:15:02.554Z,72.00
2019-04-29T04:17:37.981Z,72.10
2019-04-29T04:20:07.966Z,71.61
2019-04-29T04:22:47.495Z,70.89
2019-04-29T04:25:17.281Z,70.73
2019-04-29T04:27:46.810Z,71.01
2019-04-29T04:30:16.802Z,70.68
2019-04-29T04:32:46.269Z,70.45
2019-04-29T04:35:15.946Z,70.56
2019-04-29T04:37:45.465Z,70.45
2019-04-29T04:40:17.931Z,70.43
2019-04-29T04:42:47.438Z,70.01
2019-04-29T04:45:17.230Z,69.80
2019-04-29T04:47:46.706Z,69.84
2019-04-29T04:50:16.402Z,70.25
2019-04-29T04:52:45.879Z,70.16
2019-04-29T04:55:15.472Z,69.45
2019-04-29T04:57:44.956Z,68.51
2019-04-29T05:00:20.492Z,67.42
2019-04-29T05:02:49.951Z,67.27
2019-04-29T05:05:19.474Z,66.69
2019-04-29T05:07:48.920Z,66.29
2019-04-29T05:10:18.375Z,66.05
2019-04-29T05:12:47.987Z,66.29
2019-04-29T05:15:17.585Z,66.65
2019-04-29T05:17:47.067Z,66.36
2019-04-29T05:20:16.653Z,66.24
2019-04-29T05:23:01.509Z,65.85
2019-04-29T05:25:33.095Z,65.28
2019-04-29T05:28:02.728Z,64.47
2019-04-29T05:30:32.296Z,64.57
2019-04-29T05:33:01.751Z,64.46
2019-04-29T05:35:56.598Z,64.15
2019-04-29T05:38:42.938Z,63.85
2019-04-29T05:41:12.405Z,63.71
2019-04-29T05:43:54.037Z,63.46
2019-04-29T05:46:30.148Z,63.21
2019-04-29T05:49:02.328Z,63.47
2019-04-29T05:51:36.766Z,63.20
2019-04-29T05:54:07.060Z,63.16
2019-04-29T05:56:36.564Z,63.00
2019-04-29T05:59:08.566Z,63.03
2019-04-29T06:01:37.284Z,62.76
2019-04-29T06:04:06.796Z,62.53
2019-04-29T06:06:36.255Z,62.81
2019-04-29T06:09:11.619Z,63.05
2019-04-29T06:11:39.087Z,62.74
2019-04-29T06:14:08.591Z,62.97
2019-04-29T06:16:38.163Z,62.12
2019-04-29T06:19:07.661Z,61.90
2019-04-29T06:21:37.197Z,61.05
2019-04-29T06:24:06.683Z,62.47
2019-04-29T06:26:36.169Z,61.66
2019-04-29T06:29:06.218Z,61.50
2019-04-29T06:31:35.783Z,61.21
2019-04-29T06:34:06.540Z,59.44
2019-04-29T06:36:36.124Z,58.68
2019-04-29T06:39:07.615Z,58.44
2019-04-29T06:41:40.599Z,58.16
2019-04-29T06:44:16.124Z,57.21
2019-04-29T06:46:39.507Z,56.82
2019-04-29T06:49:10.325Z,55.68
2019-04-29T06:51:40.350Z,54.93
2019-04-29T06:54:09.891Z,54.45
2019-04-29T06:56:39.421Z,54.46
2019-04-29T06:59:12.101Z,53.55
2019-04-29T07:01:40.148Z,53.51
2019-04-29T07:04:09.606Z,53.33
2019-04-29T07:06:39.144Z,52.79
2019-04-29T07:09:08.768Z,52.37
2019-04-29T07:11:38.524Z,51.72
2019-04-29T07:14:08.134Z,51.62
2019-04-29T07:16:37.608Z,51.61
2019-04-29T07:19:07.147Z,50.84
2019-04-29T07:21:36.645Z,50.86
2019-04-29T07:24:06.135Z,50.92
2019-04-29T07:26:35.689Z,50.91
2019-04-29T07:29:05.162Z,50.77
2019-04-29T07:31:35.204Z,50.40
2019-04-29T07:34:04.826Z,50.92
2019-04-29T07:36:34.285Z,50.10
2019-04-29T07:39:05.719Z,49.92
2019-04-29T07:41:35.190Z,49.13
2019-04-29T07:44:04.734Z,49.10
2019-04-29T07:46:56.812Z,48.90
2019-04-29T07:49:19.741Z,49.02
2019-04-29T07:51:49.255Z,48.43
2019-04-29T07:54:18.827Z,47.37
2019-04-29T07:56:48.321Z,47.98
2019-04-29T07:59:18.091Z,48.21
2019-04-29T08:01:47.619Z,48.59
2019-04-29T08:04:17.085Z,47.59
2019-04-29T08:06:46.966Z,47.77
2019-04-29T08:09:16.755Z,48.33
2019-04-29T08:11:46.443Z,48.38
2019-04-29T08:14:19.108Z,49.21
2019-04-29T08:16:48.588Z,47.99
2019-04-29T08:19:18.077Z,48.09
2019-04-29T08:21:49.696Z,47.51
2019-04-29T08:24:18.767Z,47.28
2019-04-29T08:26:48.257Z,47.42
2019-04-29T08:29:17.732Z,47.18
2019-04-29T08:31:47.197Z,47.05
2019-04-29T08:34:18.672Z,46.86
2019-04-29T08:36:47.935Z,46.63
2019-04-29T08:39:17.389Z,46.09
2019-04-29T08:41:46.884Z,45.95
2019-04-29T08:44:24.886Z,45.68
2019-04-29T08:46:57.924Z,44.63
2019-04-29T08:49:27.400Z,43.98
2019-04-29T08:51:56.868Z,43.92
2019-04-29T08:54:26.354Z,44.03
2019-04-29T08:57:03.143Z,44.23
2019-04-29T08:59:27.048Z,44.38
2019-04-29T09:01:57.722Z,43.25
2019-04-29T09:04:28.542Z,43.13
2019-04-29T09:07:11.653Z,42.89
2019-04-29T09:09:29.887Z,43.16
2019-04-29T09:12:14.725Z,43.56
2019-04-29T09:15:04.179Z,43.21
2019-04-29T09:17:47.709Z,43.18
2019-04-29T09:20:17.610Z,41.95
2019-04-29T09:22:52.513Z,42.50
2019-04-29T09:26:05.975Z,42.30
2019-04-29T09:28:35.454Z,42.07
2019-04-29T09:31:05.171Z,42.28
2019-04-29T09:34:05.490Z,41.72
2019-04-29T09:36:48.340Z,41.59
2019-04-29T09:39:16.119Z,41.57
2019-04-29T09:41:59.089Z,41.43
2019-04-29T09:44:59.853Z,41.26
2019-04-29T09:47:29.758Z,40.98
2019-04-29T09:49:59.228Z,40.85
2019-04-29T09:52:28.784Z,42.10
2019-04-29T09:54:59.622Z,41.21
2019-04-29T09:57:29.487Z,40.57
2019-04-29T10:00:07.516Z,40.89
2019-04-29T10:02:55.959Z,40.83
2019-04-29T10:05:35.774Z,40.32
2019-04-29T10:08:05.745Z,39.85
2019-04-29T10:10:37.234Z,39.80
2019-04-29T10:13:06.668Z,39.13
2019-04-29T10:15:43.689Z,38.77
2019-04-29T10:18:32.222Z,38.87
2019-04-29T10:21:08.270Z,38.64
2019-04-29T10:23:37.840Z,38.86
2019-04-29T10:26:07.341Z,39.20
2019-04-29T10:28:39.786Z,38.50
2019-04-29T10:31:09.277Z,38.10
2019-04-29T10:33:38.784Z,38.57
2019-04-29T10:36:08.908Z,38.06
2019-04-29T10:38:40.409Z,38.01
2019-04-29T10:41:16.331Z,37.19
2019-04-29T10:44:03.521Z,37.01
2019-04-29T10:46:57.983Z,36.95
2019-04-29T10:49:34.886Z,37.25
2019-04-29T10:52:04.566Z,37.51
2019-04-29T10:54:35.149Z,37.89
2019-04-29T10:57:05.003Z,38.14
2019-04-29T10:59:40.747Z,38.50
2019-04-29T11:02:24.236Z,38.68
2019-04-29T11:04:56.752Z,38.71
2019-04-29T11:07:38.365Z,38.75
2019-04-29T11:10:24.777Z,38.31
2019-04-29T11:12:47.409Z,38.17
2019-04-29T11:15:18.178Z,37.92
2019-04-29T11:17:47.660Z,37.66
2019-04-29T11:20:19.626Z,37.63
2019-04-29T11:22:55.061Z,36.76
2019-04-29T11:25:33.442Z,36.58
2019-04-29T11:28:03.028Z,35.62
2019-04-29T11:30:39.122Z,34.97
2019-04-29T11:33:12.712Z,35.20
2019-04-29T11:36:03.987Z,35.61
2019-04-29T11:38:38.210Z,35.92
2019-04-29T11:41:05.320Z,36.43
2019-04-29T11:43:35.123Z,36.88
2019-04-29T11:46:04.895Z,37.21
2019-04-29T11:48:34.479Z,37.21
2019-04-29T11:51:29.379Z,36.91
2019-04-29T11:53:58.830Z,36.85
2019-04-29T11:56:28.331Z,36.59
2019-04-29T11:59:07.592Z,37.01
2019-04-29T12:01:59.773Z,36.02
2019-04-29T12:04:34.718Z,36.34
2019-04-29T12:07:04.501Z,36.21
2019-04-29T12:09:34.370Z,35.91
2019-04-29T12:12:07.963Z,35.33
2019-04-29T12:14:54.263Z,35.29
2019-04-29T12:17:30.589Z,35.49
2019-04-29T12:20:03.253Z,36.14
2019-04-29T12:22:32.944Z,36.87
2019-04-29T12:25:02.466Z,36.97
2019-04-29T12:27:31.993Z,36.95
2019-04-29T12:30:03.354Z,36.52
2019-04-29T12:32:43.369Z,35.17
2019-04-29T12:35:34.883Z,35.13
2019-04-29T12:38:48.781Z,34.58
2019-04-29T12:41:31.529Z,34.18
2019-04-29T12:44:11.132Z,33.86
2019-04-29T12:46:43.377Z,32.92
2019-04-29T12:49:13.772Z,33.11
2019-04-29T12:51:43.600Z,33.62
2019-04-29T12:54:13.086Z,34.09
2019-04-29T12:56:47.392Z,34.25
2019-04-29T12:59:14.076Z,33.71
2019-04-29T13:02:02.797Z,34.04
2019-04-29T13:05:00.306Z,33.48
2019-04-29T13:07:47.515Z,32.12
2019-04-29T13:10:25.677Z,32.53
2019-04-29T13:12:58.032Z,32.27
2019-04-29T13:15:36.496Z,32.30
2019-04-29T13:18:13.911Z,33.09
2019-04-29T13:20:45.975Z,33.59
2019-04-29T13:23:19.448Z,33.65
2019-04-29T13:25:44.404Z,33.06
2019-04-29T13:28:29.024Z,32.08
2019-04-29T13:30:45.492Z,31.98
2019-04-29T13:33:16.654Z,32.22
2019-04-29T13:35:48.610Z,32.43
2019-04-29T13:38:17.702Z,31.12
2019-04-29T13:40:47.176Z,31.07
2019-04-29T13:43:20.650Z,30.98
2019-04-29T13:45:53.768Z,31.11
2019-04-29T13:48:55.806Z,30.69
2019-04-29T13:51:35.226Z,31.32
2019-04-29T13:53:59.804Z,32.09
2019-04-29T13:56:39.224Z,32.05
2019-04-29T13:59:01.436Z,31.87
2019-04-29T14:02:01.227Z,31.48
2019-04-29T14:04:29.290Z,31.17
2019-04-29T14:06:58.767Z,31.31
2019-04-29T14:09:28.290Z,31.03
2019-04-29T14:12:02.904Z,31.19
2019-04-29T14:14:28.992Z,31.21
2019-04-29T14:17:11.897Z,30.91
2019-04-29T14:19:45.042Z,30.60
2019-04-29T14:22:00.905Z,30.83
2019-04-29T14:24:33.295Z,30.61
2019-04-29T14:27:02.860Z,30.41
2019-04-29T14:29:32.324Z,31.32
2019-04-29T14:32:01.873Z,31.77
2019-04-29T14:34:36.924Z,32.56
2019-04-29T14:37:25.163Z,32.32
2019-04-29T14:39:38.143Z,32.30
2019-04-29T14:42:18.906Z,32.21
2019-04-29T14:45:22.482Z,32.63
2019-04-29T14:48:10.914Z,33.41
2019-04-29T14:50:41.257Z,34.12
2019-04-29T14:53:10.766Z,34.14
2019-04-29T14:55:40.234Z,34.30
2019-04-29T14:58:09.780Z,33.87
2019-04-29T15:01:02.993Z,33.76
2019-04-29T15:03:34.553Z,33.85
2019-04-29T15:06:04.132Z,34.36
2019-04-29T15:08:36.379Z,33.54
2019-04-29T15:11:10.614Z,34.25
2019-04-29T15:13:36.042Z,34.34
2019-04-29T15:16:14.017Z,34.79
2019-04-29T15:19:02.556Z,34.68
2019-04-29T15:21:45.630Z,33.84
2019-04-29T15:24:17.517Z,31.43
2019-04-29T15:26:46.606Z,29.33
2019-04-29T15:29:16.091Z,29.24
2019-04-29T15:31:47.150Z,28.75
2019-04-29T15:34:16.874Z,28.84
2019-04-29T15:36:46.348Z,28.71
2019-04-29T15:39:16.227Z,27.94
2019-04-29T15:41:45.851Z,28.01
2019-04-29T15:44:20.295Z,27.21
2019-04-29T15:46:47.090Z,28.35
2019-04-29T15:49:20.211Z,28.27
2019-04-29T15:51:49.362Z,26.82
2019-04-29T15:54:19.179Z,26.98
2019-04-29T15:56:48.788Z,26.97
2019-04-29T15:59:18.251Z,26.82
2019-04-29T16:01:47.966Z,26.90
2019-04-29T16:04:27.699Z,26.60
2019-04-29T16:07:18.921Z,27.04
2019-04-29T16:10:14.430Z,26.64
2019-04-29T16:12:50.942Z,27.24
2019-04-29T16:15:18.933Z,27.32
2019-04-29T16:17:48.449Z,27.56
2019-04-29T16:20:17.906Z,27.79
2019-04-29T16:22:47.365Z,27.94
2019-04-29T16:25:16.882Z,28.62
2019-04-29T16:27:53.023Z,28.64
2019-04-29T16:30:19.107Z,27.99
2019-04-29T16:32:48.774Z,28.59
2019-04-29T16:35:23.682Z,28.31
2019-04-29T16:37:49.856Z,28.49
2019-04-29T16:40:19.994Z,28.45
2019-04-29T16:43:01.408Z,28.85
2019-04-29T16:45:51.593Z,29.42
2019-04-29T16:48:21.063Z,28.98
2019-04-29T16:50:50.568Z,29.39
2019-04-29T16:53:20.243Z,29.41
2019-04-29T16:55:49.692Z,29.50
2019-04-29T16:58:19.299Z,29.49
2019-04-29T17:00:52.525Z,29.76
2019-04-29T17:03:20.860Z,30.05
2019-04-29T17:05:50.378Z,30.23
2019-04-29T17:08:22.366Z,29.77
2019-04-29T17:11:11.966Z,30.05
2019-04-29T17:13:39.019Z,29.80
2019-04-29T17:16:12.352Z,30.27
2019-04-29T17:18:41.863Z,30.80
2019-04-29T17:21:11.688Z,30.34
2019-04-29T17:23:41.145Z,30.43
2019-04-29T17:26:10.648Z,30.86
2019-04-29T17:28:46.458Z,30.35
2019-04-29T17:31:28.618Z,30.45
2019-04-29T17:34:07.256Z,31.02
2019-04-29T17:36:37.011Z,30.83
2019-04-29T17:39:07.827Z,31.11
2019-04-29T17:41:37.312Z,31.17
2019-04-29T17:44:41.142Z,31.36
2019-04-29T17:47:29.499Z,31.97
2019-04-29T17:50:29.915Z,32.36
2019-04-29T17:52:52.974Z,32.79
2019-04-29T17:55:45.948Z,33.48
2019-04-29T17:58:19.918Z,33.84
2019-04-29T18:01:08.214Z,34.05
2019-04-29T18:03:56.703Z,34.26
2019-04-29T18:06:39.521Z,34.26
2019-04-29T18:09:28.190Z,34.39
2019-04-29T18:11:59.410Z,35.38
2019-04-29T18:14:36.820Z,35.17
2019-04-29T18:17:00.124Z,34.77
2019-04-29T18:19:45.191Z,35.02
2019-04-29T18:22:44.729Z,34.96
2019-04-29T18:25:31.141Z,35.17
2019-04-29T18:28:00.278Z,35.46
2019-04-29T18:30:35.736Z,35.64
2019-04-29T18:33:01.414Z,35.97
2019-04-29T18:35:30.936Z,36.08
2019-04-29T18:38:00.471Z,36.47
2019-04-29T18:40:30.300Z,37.29
2019-04-29T18:42:59.791Z,37.83
2019-04-29T18:45:34.117Z,38.27
2019-04-29T18:48:00.883Z,39.99
2019-04-29T18:50:34.313Z,41.22
2019-04-29T18:53:01.710Z,41.09
2019-04-29T18:55:31.232Z,41.04
2019-04-29T18:58:00.990Z,40.91
2019-04-29T19:00:30.768Z,41.40
2019-04-29T19:03:01.207Z,41.16
2019-04-29T19:05:36.661Z,41.54
2019-04-29T19:08:14.294Z,42.03
2019-04-29T19:10:37.678Z,42.07
2019-04-29T19:13:12.610Z,42.53
2019-04-29T19:15:40.051Z,42.70
2019-04-29T19:18:12.305Z,42.99
2019-04-29T19:20:41.073Z,42.85
2019-04-29T19:23:10.514Z,43.33
2019-04-29T19:25:41.521Z,43.18
2019-04-29T19:28:14.570Z,43.64
2019-04-29T19:30:42.594Z,43.90
2019-04-29T19:33:12.084Z,43.92
2019-04-29T19:35:41.631Z,43.77
2019-04-29T19:38:13.487Z,44.16
2019-04-29T19:40:42.738Z,44.36
2019-04-29T19:43:15.351Z,44.33
2019-04-29T19:45:44.635Z,44.33
2019-04-29T19:48:16.124Z,45.26
2019-04-29T19:50:51.640Z,45.19
2019-04-29T19:53:17.001Z,45.27
2019-04-29T19:55:46.625Z,45.33
2019-04-29T19:58:16.692Z,45.80
2019-04-29T20:00:47.570Z,47.23
2019-04-29T20:03:23.419Z,46.86
2019-04-29T20:05:53.383Z,46.45
2019-04-29T20:08:41.081Z,46.81
2019-04-29T20:10:56.807Z,46.51
2019-04-29T20:13:31.610Z,47.19
2019-04-29T20:16:12.794Z,47.15
2019-04-29T20:18:58.381Z,46.57
2019-04-29T20:21:25.336Z,46.45
2019-04-29T20:23:53.222Z,46.04
2019-04-29T20:26:28.961Z,46.26
2019-04-29T20:28:55.687Z,46.10
2019-04-29T20:31:26.044Z,46.21
2019-04-29T20:33:58.502Z,45.63
2019-04-29T20:36:38.131Z,45.26
2019-04-29T20:38:58.402Z,45.63
2019-04-29T20:41:40.179Z,45.73
2019-04-29T20:44:00.865Z,45.80
2019-04-29T20:46:44.582Z,45.94
2019-04-29T20:49:01.865Z,46.94
2019-04-29T20:51:47.936Z,47.53
2019-04-29T20:54:13.014Z,46.69
2019-04-29T20:56:40.115Z,46.86
2019-04-29T20:59:12.857Z,47.32
2019-04-29T21:01:44.733Z,47.92
2019-04-29T21:04:29.849Z,48.62
2019-04-29T21:06:59.105Z,48.99
2019-04-29T21:09:16.913Z,49.42
2019-04-29T21:12:04.463Z,49.78
2019-04-29T21:14:39.201Z,50.19
2019-04-29T21:17:10.972Z,50.32
2019-04-29T21:19:39.904Z,50.59
2019-04-29T21:22:12.897Z,50.81
2019-04-29T21:24:40.649Z,50.56
2019-04-29T21:27:10.248Z,50.43
2019-04-29T21:29:39.715Z,50.56
2019-04-29T21:32:09.172Z,50.75
2019-04-29T21:35:00.386Z,50.58
2019-04-29T21:37:44.863Z,50.62
2019-04-29T21:40:26.005Z,50.76
2019-04-29T21:43:13.351Z,50.71
2019-04-29T21:45:39.797Z,50.47
2019-04-29T21:48:07.952Z,50.36
2019-04-29T21:50:38.133Z,50.37
2019-04-29T21:53:07.600Z,50.79
2019-04-29T21:55:37.098Z,50.66
2019-04-29T21:58:06.603Z,50.56
2019-04-29T22:00:37.415Z,50.93
2019-04-29T22:03:07.054Z,50.91
2019-04-29T22:05:36.525Z,50.95
2019-04-29T22:08:06.231Z,50.90
2019-04-29T22:10:36.829Z,50.62
2019-04-29T22:13:06.351Z,50.81
2019-04-29T22:15:39.032Z,50.86
2019-04-29T22:18:13.468Z,50.65
2019-04-29T22:20:42.221Z,50.68
2019-04-29T22:23:13.131Z,50.67
2019-04-29T22:25:41.174Z,50.78
2019-04-29T22:28:15.972Z,50.61
2019-04-29T22:30:43.021Z,50.46
2019-04-29T22:33:12.527Z,50.18
2019-04-29T22:35:42.018Z,50.17
2019-04-29T22:38:12.539Z,49.33
2019-04-29T22:40:45.106Z,49.55
2019-04-29T22:43:20.117Z,49.69
2019-04-29T22:45:49.620Z,49.83
2019-04-29T22:48:19.921Z,49.89
2019-04-29T22:50:49.520Z,50.10
2019-04-29T22:53:18.991Z,49.84
2019-04-29T22:55:48.483Z,49.37
2019-04-29T22:58:17.958Z,49.50
2019-04-29T23:00:47.404Z,49.81
2019-04-29T23:03:16.882Z,49.63
2019-04-29T23:05:46.361Z,49.63
2019-04-29T23:08:15.870Z,49.35
2019-04-29T23:10:45.683Z,49.31
2019-04-29T23:13:15.188Z,49.23
2019-04-29T23:15:45.561Z,48.82
2019-04-29T23:18:24.297Z,48.62
2019-04-29T23:21:08.389Z,48.63
2019-04-29T23:23:42.870Z,48.87
2019-04-29T23:26:12.336Z,48.63
2019-04-29T23:28:41.802Z,48.27
2019-04-29T23:31:11.311Z,48.11
2019-04-29T23:33:40.822Z,48.24
2019-04-29T23:36:14.046Z,47.98
2019-04-29T23:38:42.838Z,47.74
2019-04-29T23:41:12.659Z,47.58
2019-04-29T23:43:42.167Z,47.75
2019-04-29T23:46:11.634Z,47.65
2019-04-29T23:48:41.115Z,47.59
2019-04-29T23:51:10.601Z,47.62
2019-04-29T23:53:40.097Z,47.42
2019-04-29T23:56:09.917Z,47.49
2019-04-29T23:58:47.069Z,47.54
